Airport Name : Kosice

Other Name : Kosice

ICAO : LZKZ

IATA : KSC

FAA :

Latitude : 48.663055

Longitude : 21.241112

Country : Slovakia

Local Date and Time : 5/25/2018 12:54:00 PM

 

TAF (Terminal Aerodrome Forecast)

TAF LZKZ 250500Z 2506/2606 02008KT 9999 FEW045 SCT080 TEMPO 2506/2512 01016KT -SHRA SCT040TCU BKN060 PROB30 TEMPO 2506/2509 4000 -TSRA FEW025 SCT035CB BKN040

 

METAR (METeorological Aerodrome Report)

LZKZ 251030Z 10004KT 9999 -SHRA SCT030 BKN045 17/15 Q1019 TEMPO SHRA

LZKZ 251000Z 11004KT 070V140 9999 -SHRA SCT030 BKN040 18/14 Q1019 TEMPO SHRA

LZKZ 250930Z 13003KT 110V170 9999 -SHRA SCT036 BKN055 18/15 Q1018 NOSIG

LZKZ 250900Z 05003KT 9999 -SHRA NSC 20/12 Q1018 NOSIG

LZKZ 250830Z 36007KT CAVOK 20/12 Q1018 NOSIG

LZKZ 250800Z 01008KT CAVOK 20/12 Q1017 NOSIG

LZKZ 250730Z 01007KT CAVOK 20/11 Q1017 NOSIG

LZKZ 250700Z 36009KT CAVOK 20/12 Q1017 NOSIG